Aviation Digital Data Service (ADDS)

Output produced by METARs form (0545 UTC 28 September 2022)
found at http://www.aviationweather.gov/metar/data/
 
VTUD 280500Z 29009KT 9999 FEW040 BKN080 28/24 Q1002 NOSIG
VTUD 280400Z 29008KT 9999 -RA FEW040 BKN080 27/24 Q1003 NOSIG
VTUD 280300Z 29007KT 9999 -RA FEW040 BKN080 27/24 Q1004 NOSIG
VTUD 280200Z 29005KT 250V310 9999 FEW040 BKN080 27/25 Q1004 NOSIG
VTUD 280100Z 25006KT 220V280 9999 -RA FEW040 BKN080 26/25 Q1003 NOSIG
VTUD 280000Z 27003KT 240V300 9999 -RA SCT040 BKN080 26/25 Q1003 NOSIG
VTUD 272300Z 29004KT 9999 FEW040 26/24 Q1003 NOSIG
VTUD 271500Z 23003KT 9999 FEW040 27/27 Q1007 NOSIG
VTUD 271400Z 22001KT 9999 FEW040 27/27 Q1007 NOSIG
VTUD 271300Z 23003KT 8000 FEW040 28/25 Q1006 NOSIG
VTUD 271200Z VRB01KT 9999 FEW040 29/23 Q1005 NOSIG
VTUD 271100Z 08003KT 9999 FEW040 29/23 Q1005 NOSIG
VTUD 271000Z 01004KT 330V050 9999 FEW040 31/22 Q1004 NOSIG
VTUD 270900Z 04004KT 350V110 9999 FEW040 31/23 Q1004 NOSIG
VTUD 270800Z 35006KT 320V020 9999 SCT040 31/22 Q1005 NOSIG
VTUD 270700Z 35005KT 270V030 9999 BKN035 32/22 Q1005 NOSIG
VTUD 270600Z 32005KT 240V030 9999 BKN035 31/23 Q1006 NOSIG
VTUD 270500Z 27006KT 200V310 9999 BKN025 30/24 Q1008 NOSIG
TAF VTUD 280500Z 2806/2906 29007KT 8000 -RA SCT025 BKN080 
     TEMPO 2807/2815 VRB15KT 4000 TSRA FEW015CB BKN020 BKN080 
     TEMPO 2816/2824 VRB15KT 4000 TSRA FEW015CB BKN020 BKN080 
     TEMPO 2900/2906 VRB15KT 4000 RA SCT010 SCT020 BKN080